sensor_id;sensor_type;location;lat;lon;timestamp;P1;durP1;ratioP1;P2;durP2;ratioP2
47844;SDS011;33605;48.822;8.796;2024-02-26T00:02:14;7.50;;;6.07;;
47844;SDS011;33605;48.822;8.796;2024-02-26T00:04:40;7.73;;;5.93;;
47844;SDS011;33605;48.822;8.796;2024-02-26T00:07:06;8.30;;;5.97;;
47844;SDS011;33605;48.822;8.796;2024-02-26T00:09:32;8.67;;;6.60;;
47844;SDS011;33605;48.822;8.796;2024-02-26T00:12:02;10.63;;;7.03;;
47844;SDS011;33605;48.822;8.796;2024-02-26T00:14:29;8.40;;;7.30;;
47844;SDS011;33605;48.822;8.796;2024-02-26T00:16:55;9.83;;;7.17;;
47844;SDS011;33605;48.822;8.796;2024-02-26T00:19:21;9.73;;;6.57;;
47844;SDS011;33605;48.822;8.796;2024-02-26T00:21:47;8.57;;;6.70;;
47844;SDS011;33605;48.822;8.796;2024-02-26T00:24:13;8.20;;;6.33;;
47844;SDS011;33605;48.822;8.796;2024-02-26T00:26:39;8.03;;;5.80;;
47844;SDS011;33605;48.822;8.796;2024-02-26T00:29:05;8.00;;;6.03;;
47844;SDS011;33605;48.822;8.796;2024-02-26T00:31:31;8.43;;;6.13;;
47844;SDS011;33605;48.822;8.796;2024-02-26T00:33:57;8.60;;;5.30;;
47844;SDS011;33605;48.822;8.796;2024-02-26T00:36:23;6.87;;;5.30;;
47844;SDS011;33605;48.822;8.796;2024-02-26T00:38:49;8.33;;;6.13;;
47844;SDS011;33605;48.822;8.796;2024-02-26T00:41:18;7.30;;;5.43;;
47844;SDS011;33605;48.822;8.796;2024-02-26T00:43:44;7.83;;;6.13;;
47844;SDS011;33605;48.822;8.796;2024-02-26T00:46:10;7.83;;;5.90;;
47844;SDS011;33605;48.822;8.796;2024-02-26T00:48:36;8.43;;;5.77;;
47844;SDS011;33605;48.822;8.796;2024-02-26T00:51:02;7.07;;;5.30;;
47844;SDS011;33605;48.822;8.796;2024-02-26T00:53:32;6.80;;;5.30;;
47844;SDS011;33605;48.822;8.796;2024-02-26T00:55:59;7.17;;;4.73;;
47844;SDS011;33605;48.822;8.796;2024-02-26T00:58:25;7.20;;;5.50;;
47844;SDS011;33605;48.822;8.796;2024-02-26T01:00:51;6.90;;;5.00;;
47844;SDS011;33605;48.822;8.796;2024-02-26T01:03:17;7.60;;;5.43;;
47844;SDS011;33605;48.822;8.796;2024-02-26T01:05:43;7.90;;;5.80;;
47844;SDS011;33605;48.822;8.796;2024-02-26T01:08:10;20.40;;;10.47;;
47844;SDS011;33605;48.822;8.796;2024-02-26T01:10:35;30.60;;;13.90;;
47844;SDS011;33605;48.822;8.796;2024-02-26T01:13:01;18.90;;;9.33;;
47844;SDS011;33605;48.822;8.796;2024-02-26T01:15:27;10.73;;;6.70;;
47844;SDS011;33605;48.822;8.796;2024-02-26T01:17:53;10.37;;;5.37;;
47844;SDS011;33605;48.822;8.796;2024-02-26T01:20:20;8.00;;;4.97;;
47844;SDS011;33605;48.822;8.796;2024-02-26T01:22:46;6.10;;;5.00;;
47844;SDS011;33605;48.822;8.796;2024-02-26T01:25:12;14.20;;;7.80;;
47844;SDS011;33605;48.822;8.796;2024-02-26T01:27:38;6.90;;;5.57;;
47844;SDS011;33605;48.822;8.796;2024-02-26T01:30:06;10.43;;;5.67;;
47844;SDS011;33605;48.822;8.796;2024-02-26T01:32:32;7.10;;;4.83;;
47844;SDS011;33605;48.822;8.796;2024-02-26T01:34:58;6.13;;;4.67;;
47844;SDS011;33605;48.822;8.796;2024-02-26T01:37:24;5.00;;;3.60;;
47844;SDS011;33605;48.822;8.796;2024-02-26T01:39:50;4.20;;;3.20;;
47844;SDS011;33605;48.822;8.796;2024-02-26T01:42:17;8.90;;;4.60;;
47844;SDS011;33605;48.822;8.796;2024-02-26T01:44:43;7.10;;;5.13;;
47844;SDS011;33605;48.822;8.796;2024-02-26T01:47:10;6.07;;;4.40;;
47844;SDS011;33605;48.822;8.796;2024-02-26T01:49:37;9.23;;;5.50;;
47844;SDS011;33605;48.822;8.796;2024-02-26T01:52:04;7.93;;;4.67;;
47844;SDS011;33605;48.822;8.796;2024-02-26T01:54:30;5.80;;;3.63;;
47844;SDS011;33605;48.822;8.796;2024-02-26T01:56:56;5.50;;;3.40;;
47844;SDS011;33605;48.822;8.796;2024-02-26T01:59:23;4.43;;;3.57;;
47844;SDS011;33605;48.822;8.796;2024-02-26T02:01:50;4.10;;;3.30;;
47844;SDS011;33605;48.822;8.796;2024-02-26T02:04:19;5.10;;;4.10;;
47844;SDS011;33605;48.822;8.796;2024-02-26T02:06:45;3.70;;;3.33;;
47844;SDS011;33605;48.822;8.796;2024-02-26T02:09:11;3.27;;;2.90;;
47844;SDS011;33605;48.822;8.796;2024-02-26T02:11:37;3.07;;;2.77;;
47844;SDS011;33605;48.822;8.796;2024-02-26T02:14:03;3.30;;;2.67;;
47844;SDS011;33605;48.822;8.796;2024-02-26T02:16:29;2.50;;;2.30;;
47844;SDS011;33605;48.822;8.796;2024-02-26T02:18:55;2.80;;;2.43;;
47844;SDS011;33605;48.822;8.796;2024-02-26T02:21:21;3.80;;;2.73;;
47844;SDS011;33605;48.822;8.796;2024-02-26T02:23:47;4.50;;;2.57;;
47844;SDS011;33605;48.822;8.796;2024-02-26T02:26:14;2.73;;;2.10;;
47844;SDS011;33605;48.822;8.796;2024-02-26T02:28:40;3.00;;;2.30;;
47844;SDS011;33605;48.822;8.796;2024-02-26T02:31:06;2.43;;;2.20;;
47844;SDS011;33605;48.822;8.796;2024-02-26T02:33:33;3.10;;;2.63;;
47844;SDS011;33605;48.822;8.796;2024-02-26T02:36:00;5.90;;;2.27;;
47844;SDS011;33605;48.822;8.796;2024-02-26T02:38:26;2.87;;;2.50;;
47844;SDS011;33605;48.822;8.796;2024-02-26T02:40:54;2.50;;;2.30;;
47844;SDS011;33605;48.822;8.796;2024-02-26T02:43:20;2.40;;;2.20;;
47844;SDS011;33605;48.822;8.796;2024-02-26T02:45:46;2.03;;;1.93;;
47844;SDS011;33605;48.822;8.796;2024-02-26T02:48:12;2.70;;;2.30;;
47844;SDS011;33605;48.822;8.796;2024-02-26T02:50:38;2.23;;;1.80;;
47844;SDS011;33605;48.822;8.796;2024-02-26T02:53:04;1.90;;;1.80;;
47844;SDS011;33605;48.822;8.796;2024-02-26T02:55:30;2.23;;;1.80;;
47844;SDS011;33605;48.822;8.796;2024-02-26T02:57:56;2.70;;;1.73;;
47844;SDS011;33605;48.822;8.796;2024-02-26T03:00:22;1.60;;;1.50;;
47844;SDS011;33605;48.822;8.796;2024-02-26T03:02:48;1.57;;;1.47;;
47844;SDS011;33605;48.822;8.796;2024-02-26T03:05:15;1.90;;;1.67;;
47844;SDS011;33605;48.822;8.796;2024-02-26T03:07:41;2.17;;;2.00;;
47844;SDS011;33605;48.822;8.796;2024-02-26T03:10:07;2.30;;;2.10;;
47844;SDS011;33605;48.822;8.796;2024-02-26T03:12:36;2.60;;;2.07;;
47844;SDS011;33605;48.822;8.796;2024-02-26T03:15:02;1.90;;;1.70;;
47844;SDS011;33605;48.822;8.796;2024-02-26T03:17:28;2.33;;;1.80;;
47844;SDS011;33605;48.822;8.796;2024-02-26T03:19:55;2.00;;;1.80;;
47844;SDS011;33605;48.822;8.796;2024-02-26T03:22:21;1.77;;;1.50;;
47844;SDS011;33605;48.822;8.796;2024-02-26T03:24:47;5.60;;;1.63;;
47844;SDS011;33605;48.822;8.796;2024-02-26T03:27:13;2.23;;;1.63;;
47844;SDS011;33605;48.822;8.796;2024-02-26T03:29:40;1.43;;;1.33;;
47844;SDS011;33605;48.822;8.796;2024-02-26T03:32:06;1.63;;;1.53;;
47844;SDS011;33605;48.822;8.796;2024-02-26T03:34:33;1.50;;;1.40;;
47844;SDS011;33605;48.822;8.796;2024-02-26T03:36:59;1.70;;;1.60;;
47844;SDS011;33605;48.822;8.796;2024-02-26T03:39:25;1.60;;;1.50;;
47844;SDS011;33605;48.822;8.796;2024-02-26T03:41:51;1.23;;;1.13;;
47844;SDS011;33605;48.822;8.796;2024-02-26T03:44:17;1.50;;;1.40;;
47844;SDS011;33605;48.822;8.796;2024-02-26T03:46:43;1.67;;;1.57;;
47844;SDS011;33605;48.822;8.796;2024-02-26T03:49:09;1.87;;;1.47;;
47844;SDS011;33605;48.822;8.796;2024-02-26T03:51:35;1.90;;;1.70;;
47844;SDS011;33605;48.822;8.796;2024-02-26T03:54:02;2.03;;;1.73;;
47844;SDS011;33605;48.822;8.796;2024-02-26T03:56:28;3.00;;;2.23;;
47844;SDS011;33605;48.822;8.796;2024-02-26T03:58:54;2.43;;;1.40;;
47844;SDS011;33605;48.822;8.796;2024-02-26T04:01:20;1.77;;;1.40;;
47844;SDS011;33605;48.822;8.796;2024-02-26T04:03:46;1.60;;;1.50;;
47844;SDS011;33605;48.822;8.796;2024-02-26T04:06:12;2.07;;;1.80;;
47844;SDS011;33605;48.822;8.796;2024-02-26T04:08:39;1.73;;;1.40;;
47844;SDS011;33605;48.822;8.796;2024-02-26T04:11:06;3.17;;;2.00;;
47844;SDS011;33605;48.822;8.796;2024-02-26T04:13:33;1.80;;;1.70;;
47844;SDS011;33605;48.822;8.796;2024-02-26T04:15:59;2.03;;;1.80;;
47844;SDS011;33605;48.822;8.796;2024-02-26T04:18:26;1.73;;;1.53;;
47844;SDS011;33605;48.822;8.796;2024-02-26T04:20:52;1.53;;;1.43;;
47844;SDS011;33605;48.822;8.796;2024-02-26T04:23:19;1.50;;;1.40;;
47844;SDS011;33605;48.822;8.796;2024-02-26T04:25:45;1.83;;;1.73;;
47844;SDS011;33605;48.822;8.796;2024-02-26T04:28:11;1.93;;;1.73;;
47844;SDS011;33605;48.822;8.796;2024-02-26T04:30:37;2.20;;;1.67;;
47844;SDS011;33605;48.822;8.796;2024-02-26T04:33:03;2.27;;;1.50;;
47844;SDS011;33605;48.822;8.796;2024-02-26T04:35:30;2.43;;;2.20;;
47844;SDS011;33605;48.822;8.796;2024-02-26T04:37:56;2.00;;;1.90;;
47844;SDS011;33605;48.822;8.796;2024-02-26T04:40:22;1.40;;;1.27;;
47844;SDS011;33605;48.822;8.796;2024-02-26T04:42:49;2.57;;;1.90;;
47844;SDS011;33605;48.822;8.796;2024-02-26T04:45:15;3.30;;;2.10;;
47844;SDS011;33605;48.822;8.796;2024-02-26T04:47:41;3.30;;;1.90;;
47844;SDS011;33605;48.822;8.796;2024-02-26T04:50:07;2.57;;;1.90;;
47844;SDS011;33605;48.822;8.796;2024-02-26T04:52:33;1.80;;;1.70;;
47844;SDS011;33605;48.822;8.796;2024-02-26T04:54:59;2.53;;;2.00;;
47844;SDS011;33605;48.822;8.796;2024-02-26T04:57:25;4.20;;;2.50;;
47844;SDS011;33605;48.822;8.796;2024-02-26T04:59:51;2.70;;;2.20;;
47844;SDS011;33605;48.822;8.796;2024-02-26T05:02:17;3.33;;;3.03;;
47844;SDS011;33605;48.822;8.796;2024-02-26T05:04:43;2.30;;;2.03;;
47844;SDS011;33605;48.822;8.796;2024-02-26T05:07:09;1.77;;;1.67;;
47844;SDS011;33605;48.822;8.796;2024-02-26T05:09:37;2.40;;;2.20;;
47844;SDS011;33605;48.822;8.796;2024-02-26T05:12:03;2.00;;;1.90;;
47844;SDS011;33605;48.822;8.796;2024-02-26T05:14:29;2.50;;;1.80;;
47844;SDS011;33605;48.822;8.796;2024-02-26T05:16:55;2.30;;;1.83;;
47844;SDS011;33605;48.822;8.796;2024-02-26T05:19:21;2.10;;;1.90;;
47844;SDS011;33605;48.822;8.796;2024-02-26T05:21:47;2.13;;;1.73;;
47844;SDS011;33605;48.822;8.796;2024-02-26T05:24:15;2.43;;;1.80;;
47844;SDS011;33605;48.822;8.796;2024-02-26T05:26:42;4.23;;;2.10;;
47844;SDS011;33605;48.822;8.796;2024-02-26T05:29:08;2.13;;;1.93;;
47844;SDS011;33605;48.822;8.796;2024-02-26T05:31:34;1.93;;;1.80;;
47844;SDS011;33605;48.822;8.796;2024-02-26T05:34:00;1.83;;;1.73;;
47844;SDS011;33605;48.822;8.796;2024-02-26T05:36:26;1.97;;;1.83;;
47844;SDS011;33605;48.822;8.796;2024-02-26T05:38:53;2.57;;;1.93;;
47844;SDS011;33605;48.822;8.796;2024-02-26T05:41:20;2.83;;;1.60;;
47844;SDS011;33605;48.822;8.796;2024-02-26T05:43:51;2.00;;;1.73;;
47844;SDS011;33605;48.822;8.796;2024-02-26T05:46:17;1.70;;;1.60;;
47844;SDS011;33605;48.822;8.796;2024-02-26T05:48:44;2.37;;;1.80;;
47844;SDS011;33605;48.822;8.796;2024-02-26T05:51:10;1.70;;;1.60;;
47844;SDS011;33605;48.822;8.796;2024-02-26T05:53:36;2.30;;;1.70;;
47844;SDS011;33605;48.822;8.796;2024-02-26T05:56:02;2.07;;;1.60;;
47844;SDS011;33605;48.822;8.796;2024-02-26T05:58:28;1.90;;;1.80;;
47844;SDS011;33605;48.822;8.796;2024-02-26T06:00:54;2.13;;;1.47;;
47844;SDS011;33605;48.822;8.796;2024-02-26T06:03:20;1.60;;;1.50;;
47844;SDS011;33605;48.822;8.796;2024-02-26T06:05:46;1.93;;;1.83;;
47844;SDS011;33605;48.822;8.796;2024-02-26T06:08:12;1.60;;;1.50;;
47844;SDS011;33605;48.822;8.796;2024-02-26T06:10:39;2.03;;;1.60;;
47844;SDS011;33605;48.822;8.796;2024-02-26T06:13:05;1.57;;;1.47;;
47844;SDS011;33605;48.822;8.796;2024-02-26T06:15:31;2.03;;;1.50;;
47844;SDS011;33605;48.822;8.796;2024-02-26T06:17:57;1.73;;;1.40;;
47844;SDS011;33605;48.822;8.796;2024-02-26T06:20:23;1.40;;;1.27;;
47844;SDS011;33605;48.822;8.796;2024-02-26T06:22:49;1.50;;;1.40;;
47844;SDS011;33605;48.822;8.796;2024-02-26T06:25:15;1.93;;;1.33;;
47844;SDS011;33605;48.822;8.796;2024-02-26T06:27:41;1.40;;;1.30;;
47844;SDS011;33605;48.822;8.796;2024-02-26T06:30:07;1.63;;;1.53;;
47844;SDS011;33605;48.822;8.796;2024-02-26T06:32:35;1.60;;;1.50;;
47844;SDS011;33605;48.822;8.796;2024-02-26T06:35:01;1.63;;;1.53;;
47844;SDS011;33605;48.822;8.796;2024-02-26T06:37:31;1.70;;;1.53;;
47844;SDS011;33605;48.822;8.796;2024-02-26T06:39:58;3.87;;;1.53;;
47844;SDS011;33605;48.822;8.796;2024-02-26T06:42:24;1.70;;;1.60;;
47844;SDS011;33605;48.822;8.796;2024-02-26T06:44:50;1.70;;;1.60;;
47844;SDS011;33605;48.822;8.796;2024-02-26T06:47:16;1.63;;;1.53;;
47844;SDS011;33605;48.822;8.796;2024-02-26T06:49:42;2.20;;;1.70;;
47844;SDS011;33605;48.822;8.796;2024-02-26T06:52:09;3.57;;;1.70;;
47844;SDS011;33605;48.822;8.796;2024-02-26T06:54:35;6.17;;;1.50;;
47844;SDS011;33605;48.822;8.796;2024-02-26T06:57:01;1.80;;;1.70;;
47844;SDS011;33605;48.822;8.796;2024-02-26T06:59:28;4.20;;;2.20;;
47844;SDS011;33605;48.822;8.796;2024-02-26T07:01:54;1.43;;;1.33;;
47844;SDS011;33605;48.822;8.796;2024-02-26T07:04:20;1.43;;;1.33;;
47844;SDS011;33605;48.822;8.796;2024-02-26T07:06:46;1.67;;;1.47;;
47844;SDS011;33605;48.822;8.796;2024-02-26T07:09:12;1.63;;;1.43;;
47844;SDS011;33605;48.822;8.796;2024-02-26T07:11:39;5.30;;;1.73;;
47844;SDS011;33605;48.822;8.796;2024-02-26T07:14:08;2.23;;;1.70;;
47844;SDS011;33605;48.822;8.796;2024-02-26T07:16:35;1.63;;;1.40;;
47844;SDS011;33605;48.822;8.796;2024-02-26T07:19:01;1.50;;;1.40;;
47844;SDS011;33605;48.822;8.796;2024-02-26T07:21:28;1.87;;;1.50;;
47844;SDS011;33605;48.822;8.796;2024-02-26T07:23:54;1.90;;;1.70;;
47844;SDS011;33605;48.822;8.796;2024-02-26T07:26:20;1.50;;;1.40;;
47844;SDS011;33605;48.822;8.796;2024-02-26T07:28:46;2.80;;;1.50;;
47844;SDS011;33605;48.822;8.796;2024-02-26T07:31:12;2.17;;;1.67;;
47844;SDS011;33605;48.822;8.796;2024-02-26T07:33:38;2.37;;;1.77;;
47844;SDS011;33605;48.822;8.796;2024-02-26T07:36:04;1.83;;;1.50;;
47844;SDS011;33605;48.822;8.796;2024-02-26T07:38:30;1.70;;;1.60;;
47844;SDS011;33605;48.822;8.796;2024-02-26T07:40:56;2.27;;;1.70;;
47844;SDS011;33605;48.822;8.796;2024-02-26T07:43:22;1.93;;;1.70;;
47844;SDS011;33605;48.822;8.796;2024-02-26T07:45:48;1.67;;;1.57;;
47844;SDS011;33605;48.822;8.796;2024-02-26T07:48:14;2.50;;;1.90;;
47844;SDS011;33605;48.822;8.796;2024-02-26T07:50:40;1.70;;;1.60;;
47844;SDS011;33605;48.822;8.796;2024-02-26T07:53:06;1.97;;;1.80;;
47844;SDS011;33605;48.822;8.796;2024-02-26T07:55:32;1.80;;;1.70;;
47844;SDS011;33605;48.822;8.796;2024-02-26T07:57:58;1.70;;;1.60;;
47844;SDS011;33605;48.822;8.796;2024-02-26T08:00:25;1.90;;;1.80;;
47844;SDS011;33605;48.822;8.796;2024-02-26T08:02:51;2.23;;;1.73;;
47844;SDS011;33605;48.822;8.796;2024-02-26T08:05:17;2.67;;;1.53;;
47844;SDS011;33605;48.822;8.796;2024-02-26T08:07:43;1.80;;;1.70;;
47844;SDS011;33605;48.822;8.796;2024-02-26T08:10:09;1.93;;;1.73;;
47844;SDS011;33605;48.822;8.796;2024-02-26T08:12:36;2.57;;;1.43;;
47844;SDS011;33605;48.822;8.796;2024-02-26T08:15:02;1.70;;;1.60;;
47844;SDS011;33605;48.822;8.796;2024-02-26T08:17:28;3.20;;;1.47;;
47844;SDS011;33605;48.822;8.796;2024-02-26T08:19:54;1.70;;;1.40;;
47844;SDS011;33605;48.822;8.796;2024-02-26T08:22:22;1.50;;;1.40;;
47844;SDS011;33605;48.822;8.796;2024-02-26T08:24:48;1.50;;;1.40;;
47844;SDS011;33605;48.822;8.796;2024-02-26T08:27:14;1.60;;;1.50;;
47844;SDS011;33605;48.822;8.796;2024-02-26T08:29:40;1.50;;;1.40;;
47844;SDS011;33605;48.822;8.796;2024-02-26T08:32:06;1.40;;;1.30;;
47844;SDS011;33605;48.822;8.796;2024-02-26T08:34:32;1.40;;;1.30;;
47844;SDS011;33605;48.822;8.796;2024-02-26T08:36:58;1.60;;;1.33;;
47844;SDS011;33605;48.822;8.796;2024-02-26T08:39:24;1.27;;;1.17;;
47844;SDS011;33605;48.822;8.796;2024-02-26T08:41:51;1.43;;;1.33;;
47844;SDS011;33605;48.822;8.796;2024-02-26T08:44:17;1.40;;;1.30;;
47844;SDS011;33605;48.822;8.796;2024-02-26T08:46:43;1.30;;;1.20;;
47844;SDS011;33605;48.822;8.796;2024-02-26T08:49:10;2.00;;;1.63;;
47844;SDS011;33605;48.822;8.796;2024-02-26T08:51:41;1.30;;;1.20;;
47844;SDS011;33605;48.822;8.796;2024-02-26T08:54:07;1.43;;;1.33;;
47844;SDS011;33605;48.822;8.796;2024-02-26T08:56:33;1.50;;;1.40;;
47844;SDS011;33605;48.822;8.796;2024-02-26T08:58:59;1.83;;;1.53;;
47844;SDS011;33605;48.822;8.796;2024-02-26T09:01:28;1.47;;;1.23;;
47844;SDS011;33605;48.822;8.796;2024-02-26T09:04:37;1.40;;;1.30;;
47844;SDS011;33605;48.822;8.796;2024-02-26T09:07:03;1.57;;;1.40;;
47844;SDS011;33605;48.822;8.796;2024-02-26T09:09:29;1.87;;;1.60;;
47844;SDS011;33605;48.822;8.796;2024-02-26T09:11:55;1.30;;;1.20;;
47844;SDS011;33605;48.822;8.796;2024-02-26T09:14:21;1.97;;;1.53;;
47844;SDS011;33605;48.822;8.796;2024-02-26T09:16:47;1.50;;;1.40;;
47844;SDS011;33605;48.822;8.796;2024-02-26T09:19:14;1.97;;;1.63;;
47844;SDS011;33605;48.822;8.796;2024-02-26T09:21:43;1.67;;;1.43;;
47844;SDS011;33605;48.822;8.796;2024-02-26T09:24:10;1.70;;;1.60;;
47844;SDS011;33605;48.822;8.796;2024-02-26T09:26:36;1.63;;;1.53;;
47844;SDS011;33605;48.822;8.796;2024-02-26T09:29:02;1.77;;;1.50;;
47844;SDS011;33605;48.822;8.796;2024-02-26T09:31:29;2.47;;;1.93;;
47844;SDS011;33605;48.822;8.796;2024-02-26T09:33:55;2.80;;;1.80;;
47844;SDS011;33605;48.822;8.796;2024-02-26T09:36:21;2.70;;;1.70;;
47844;SDS011;33605;48.822;8.796;2024-02-26T09:38:47;1.70;;;1.60;;
47844;SDS011;33605;48.822;8.796;2024-02-26T09:41:16;2.40;;;2.10;;
47844;SDS011;33605;48.822;8.796;2024-02-26T09:43:45;2.23;;;2.00;;
47844;SDS011;33605;48.822;8.796;2024-02-26T09:46:11;2.67;;;2.00;;
47844;SDS011;33605;48.822;8.796;2024-02-26T09:48:38;2.30;;;2.10;;
47844;SDS011;33605;48.822;8.796;2024-02-26T09:51:05;3.13;;;1.97;;
47844;SDS011;33605;48.822;8.796;2024-02-26T09:53:31;2.03;;;1.80;;
47844;SDS011;33605;48.822;8.796;2024-02-26T09:55:58;4.30;;;1.97;;
47844;SDS011;33605;48.822;8.796;2024-02-26T09:58:24;2.20;;;2.00;;
47844;SDS011;33605;48.822;8.796;2024-02-26T10:00:53;3.33;;;2.17;;
47844;SDS011;33605;48.822;8.796;2024-02-26T10:03:21;2.40;;;2.20;;
47844;SDS011;33605;48.822;8.796;2024-02-26T10:05:47;3.00;;;2.20;;
47844;SDS011;33605;48.822;8.796;2024-02-26T10:08:14;2.40;;;1.90;;
47844;SDS011;33605;48.822;8.796;2024-02-26T10:10:43;2.27;;;1.97;;
47844;SDS011;33605;48.822;8.796;2024-02-26T10:13:09;2.63;;;2.43;;
47844;SDS011;33605;48.822;8.796;2024-02-26T10:15:37;2.60;;;2.17;;
47844;SDS011;33605;48.822;8.796;2024-02-26T10:18:06;2.93;;;2.63;;
47844;SDS011;33605;48.822;8.796;2024-02-26T10:20:32;2.80;;;2.13;;
47844;SDS011;33605;48.822;8.796;2024-02-26T10:22:58;2.53;;;2.00;;
47844;SDS011;33605;48.822;8.796;2024-02-26T10:25:27;2.47;;;2.27;;
47844;SDS011;33605;48.822;8.796;2024-02-26T10:27:54;2.67;;;2.47;;
47844;SDS011;33605;48.822;8.796;2024-02-26T10:30:21;1.90;;;1.73;;
47844;SDS011;33605;48.822;8.796;2024-02-26T10:32:48;2.40;;;1.97;;
47844;SDS011;33605;48.822;8.796;2024-02-26T10:35:15;5.03;;;2.20;;
47844;SDS011;33605;48.822;8.796;2024-02-26T10:37:41;2.17;;;1.90;;
47844;SDS011;33605;48.822;8.796;2024-02-26T10:40:11;2.07;;;1.87;;
47844;SDS011;33605;48.822;8.796;2024-02-26T10:42:37;3.57;;;2.30;;
47844;SDS011;33605;48.822;8.796;2024-02-26T10:45:06;2.50;;;1.93;;
47844;SDS011;33605;48.822;8.796;2024-02-26T10:47:34;2.00;;;1.90;;
47844;SDS011;33605;48.822;8.796;2024-02-26T10:50:01;2.27;;;2.07;;
47844;SDS011;33605;48.822;8.796;2024-02-26T10:52:27;2.27;;;2.00;;
47844;SDS011;33605;48.822;8.796;2024-02-26T10:54:56;2.20;;;2.00;;
47844;SDS011;33605;48.822;8.796;2024-02-26T10:57:22;1.93;;;1.73;;
47844;SDS011;33605;48.822;8.796;2024-02-26T10:59:50;1.80;;;1.70;;
47844;SDS011;33605;48.822;8.796;2024-02-26T11:02:17;2.20;;;1.70;;
47844;SDS011;33605;48.822;8.796;2024-02-26T11:04:43;2.50;;;1.83;;
47844;SDS011;33605;48.822;8.796;2024-02-26T11:07:10;2.90;;;2.07;;
47844;SDS011;33605;48.822;8.796;2024-02-26T11:09:36;1.93;;;1.70;;
47844;SDS011;33605;48.822;8.796;2024-02-26T11:12:08;3.40;;;1.80;;
47844;SDS011;33605;48.822;8.796;2024-02-26T11:14:38;2.03;;;1.63;;
47844;SDS011;33605;48.822;8.796;2024-02-26T11:17:04;1.97;;;1.77;;
47844;SDS011;33605;48.822;8.796;2024-02-26T11:19:31;1.93;;;1.80;;
47844;SDS011;33605;48.822;8.796;2024-02-26T11:21:58;4.30;;;1.80;;
47844;SDS011;33605;48.822;8.796;2024-02-26T11:24:26;2.33;;;1.60;;
47844;SDS011;33605;48.822;8.796;2024-02-26T11:26:56;5.07;;;1.73;;
47844;SDS011;33605;48.822;8.796;2024-02-26T11:29:27;2.53;;;1.80;;
47844;SDS011;33605;48.822;8.796;2024-02-26T11:31:54;3.17;;;1.80;;
47844;SDS011;33605;48.822;8.796;2024-02-26T11:34:20;1.40;;;1.30;;
47844;SDS011;33605;48.822;8.796;2024-02-26T11:36:47;2.20;;;1.50;;
47844;SDS011;33605;48.822;8.796;2024-02-26T11:39:13;1.80;;;1.50;;
47844;SDS011;33605;48.822;8.796;2024-02-26T11:41:41;1.60;;;1.50;;
47844;SDS011;33605;48.822;8.796;2024-02-26T11:44:07;1.40;;;1.30;;
47844;SDS011;33605;48.822;8.796;2024-02-26T11:46:40;1.43;;;1.33;;
47844;SDS011;33605;48.822;8.796;2024-02-26T11:51:55;1.40;;;1.30;;
47844;SDS011;33605;48.822;8.796;2024-02-26T11:57:24;1.30;;;1.20;;
47844;SDS011;33605;48.822;8.796;2024-02-26T11:59:51;1.60;;;1.20;;
47844;SDS011;33605;48.822;8.796;2024-02-26T12:05:02;1.40;;;1.30;;
47844;SDS011;33605;48.822;8.796;2024-02-26T12:07:28;1.40;;;1.30;;
47844;SDS011;33605;48.822;8.796;2024-02-26T12:10:12;1.20;;;1.10;;
47844;SDS011;33605;48.822;8.796;2024-02-26T12:12:39;1.40;;;1.23;;
47844;SDS011;33605;48.822;8.796;2024-02-26T12:15:05;1.10;;;1.00;;
47844;SDS011;33605;48.822;8.796;2024-02-26T12:17:31;1.37;;;1.27;;
47844;SDS011;33605;48.822;8.796;2024-02-26T12:20:07;3.00;;;1.63;;
47844;SDS011;33605;48.822;8.796;2024-02-26T12:22:34;1.37;;;1.03;;
47844;SDS011;33605;48.822;8.796;2024-02-26T12:25:02;1.10;;;1.00;;
47844;SDS011;33605;48.822;8.796;2024-02-26T12:27:28;1.30;;;1.00;;
47844;SDS011;33605;48.822;8.796;2024-02-26T12:29:54;1.77;;;1.20;;
47844;SDS011;33605;48.822;8.796;2024-02-26T12:32:20;1.00;;;0.90;;
47844;SDS011;33605;48.822;8.796;2024-02-26T12:34:46;1.93;;;1.10;;
47844;SDS011;33605;48.822;8.796;2024-02-26T12:37:12;3.00;;;1.20;;
47844;SDS011;33605;48.822;8.796;2024-02-26T12:39:38;1.30;;;1.10;;
47844;SDS011;33605;48.822;8.796;2024-02-26T12:42:05;1.10;;;1.00;;
47844;SDS011;33605;48.822;8.796;2024-02-26T12:44:31;1.73;;;1.00;;
47844;SDS011;33605;48.822;8.796;2024-02-26T12:47:00;1.30;;;1.20;;
47844;SDS011;33605;48.822;8.796;2024-02-26T12:49:27;1.27;;;1.17;;
47844;SDS011;33605;48.822;8.796;2024-02-26T12:51:54;1.20;;;1.10;;
47844;SDS011;33605;48.822;8.796;2024-02-26T12:54:26;1.60;;;1.30;;
47844;SDS011;33605;48.822;8.796;2024-02-26T12:56:52;1.63;;;1.10;;
47844;SDS011;33605;48.822;8.796;2024-02-26T12:59:18;1.20;;;1.10;;
47844;SDS011;33605;48.822;8.796;2024-02-26T13:01:44;1.13;;;1.00;;
47844;SDS011;33605;48.822;8.796;2024-02-26T13:04:11;3.30;;;1.23;;
47844;SDS011;33605;48.822;8.796;2024-02-26T13:06:37;4.40;;;1.40;;
47844;SDS011;33605;48.822;8.796;2024-02-26T13:09:03;1.20;;;1.10;;
47844;SDS011;33605;48.822;8.796;2024-02-26T13:11:29;1.43;;;1.30;;
47844;SDS011;33605;48.822;8.796;2024-02-26T13:13:56;1.23;;;1.13;;
47844;SDS011;33605;48.822;8.796;2024-02-26T13:16:24;1.40;;;1.30;;
47844;SDS011;33605;48.822;8.796;2024-02-26T13:18:50;1.10;;;1.00;;
47844;SDS011;33605;48.822;8.796;2024-02-26T13:21:18;1.10;;;1.00;;
47844;SDS011;33605;48.822;8.796;2024-02-26T13:23:47;2.77;;;1.20;;
47844;SDS011;33605;48.822;8.796;2024-02-26T13:26:14;1.23;;;1.13;;
47844;SDS011;33605;48.822;8.796;2024-02-26T13:28:40;1.30;;;1.10;;
47844;SDS011;33605;48.822;8.796;2024-02-26T13:31:06;1.67;;;1.03;;
47844;SDS011;33605;48.822;8.796;2024-02-26T13:33:33;1.30;;;1.20;;
47844;SDS011;33605;48.822;8.796;2024-02-26T13:35:59;1.10;;;1.00;;
47844;SDS011;33605;48.822;8.796;2024-02-26T13:38:28;1.63;;;1.10;;
47844;SDS011;33605;48.822;8.796;2024-02-26T13:40:54;1.30;;;1.20;;
47844;SDS011;33605;48.822;8.796;2024-02-26T13:43:21;0.93;;;0.87;;
47844;SDS011;33605;48.822;8.796;2024-02-26T13:45:47;1.03;;;0.93;;
47844;SDS011;33605;48.822;8.796;2024-02-26T13:48:13;1.30;;;1.10;;
47844;SDS011;33605;48.822;8.796;2024-02-26T13:50:40;1.10;;;1.00;;
47844;SDS011;33605;48.822;8.796;2024-02-26T13:53:06;0.90;;;0.90;;
47844;SDS011;33605;48.822;8.796;2024-02-26T13:55:32;1.00;;;0.90;;
47844;SDS011;33605;48.822;8.796;2024-02-26T13:57:59;1.00;;;0.90;;
47844;SDS011;33605;48.822;8.796;2024-02-26T14:00:28;0.83;;;0.83;;
47844;SDS011;33605;48.822;8.796;2024-02-26T16:23:04;1.53;;;1.43;;
47844;SDS011;33605;48.822;8.796;2024-02-26T16:25:32;2.10;;;1.87;;
47844;SDS011;33605;48.822;8.796;2024-02-26T16:27:58;3.30;;;2.60;;
47844;SDS011;33605;48.822;8.796;2024-02-26T16:30:24;3.60;;;2.37;;
47844;SDS011;33605;48.822;8.796;2024-02-26T16:32:50;3.33;;;2.33;;
47844;SDS011;33605;48.822;8.796;2024-02-26T16:35:17;3.93;;;2.30;;
47844;SDS011;33605;48.822;8.796;2024-02-26T16:37:43;2.30;;;1.80;;
47844;SDS011;33605;48.822;8.796;2024-02-26T16:40:09;3.13;;;1.67;;
47844;SDS011;33605;48.822;8.796;2024-02-26T16:42:40;1.60;;;1.50;;
47844;SDS011;33605;48.822;8.796;2024-02-26T16:45:06;1.63;;;1.53;;
47844;SDS011;33605;48.822;8.796;2024-02-26T16:47:33;1.87;;;1.77;;
47844;SDS011;33605;48.822;8.796;2024-02-26T16:50:01;2.40;;;2.20;;
47844;SDS011;33605;48.822;8.796;2024-02-26T16:52:27;6.57;;;2.70;;
47844;SDS011;33605;48.822;8.796;2024-02-26T16:54:54;2.90;;;2.70;;
47844;SDS011;33605;48.822;8.796;2024-02-26T16:57:20;2.90;;;2.23;;
47844;SDS011;33605;48.822;8.796;2024-02-26T16:59:47;2.40;;;2.20;;
47844;SDS011;33605;48.822;8.796;2024-02-26T17:02:13;2.50;;;2.00;;
47844;SDS011;33605;48.822;8.796;2024-02-26T17:04:42;4.50;;;2.63;;
47844;SDS011;33605;48.822;8.796;2024-02-26T17:07:08;2.50;;;2.23;;
47844;SDS011;33605;48.822;8.796;2024-02-26T17:09:35;2.60;;;1.93;;
47844;SDS011;33605;48.822;8.796;2024-02-26T17:12:01;2.33;;;2.13;;
47844;SDS011;33605;48.822;8.796;2024-02-26T17:14:27;2.10;;;1.83;;